Terminal Aerodrome Forecast
Issued by NWS Knoxville/Tri Cities, TN

Home | Current Version | Previous Version | Text Only | Print | Product List | Glossary On
Versions: 1 2 3 4 5 6 7 8 9 10 11 12 13 14 15 16 17 18 19
000
FTUS44 KMRX 040902 AAA
TAFCHA
TAF AMD
KCHA 040902Z 0409/0506 31006KT P6SM FEW080
     FM041600 27012KT P6SM SCT070
     FM042200 29012G20KT P6SM VCSH OVC050
     FM050000 32010KT 3SM -SHRA OVC035
     FM050300 35008KT P6SM BKN035=

USA.gov is the U.S. government's official web portal to all federal, state and local government web resources and services.